Cantril, Iowa
Current Conditions -  °F | °C
As of 2:15 AM on Sunday 26 Oct 2014 (Local Time) from KFFL Reporting Station
Clear Clear  
Wind Chill: 42°   Ceiling: Unl
Heat Index: 46°   Visibility: NA
Dew Point: 36°   Wind: 8mph
Humidity: 66%   Direction: 30°NNE
Pressure: 30.05"   Gusts: NA
Location:  40.64°N, 92.07°W
Report Text: KFFL 260715Z AUTO 03007KT CLR 08/02 A3005 RMK AO2
Loading
Personal Weather Stations






























Interactive Weather Map
Tropical Storm Tracking
New forecast layout! Learn more

10-Day Weather Forecast

Advertisements
Track Severe Weather on mobile